Airfield :
LOGIN :

Register | Disclaimer

   EN    FR    IT 

 










Legend :    VFR   Marginal VFR   IFR   Intensive IFR   Very Intensive IFR
Visi :
Ceiling :
>= 8 km
>= 3000ft
5 to 8 km
1000 to 3000 ft
1500m to 5 km
500 to 1000 ft
800 to 1500m
200 to 500 ft
< 800m
< 200 ft
Symbols :   Thunderstorms  Fog  Heavy snow  Heavy precipitations  Wind > 20 kt
SIGMETs :     Misc.  Thunderstorms  Icing  Turbulence  Mountain Waves  Volcanic Ashes






- Airport Elevation : 1708 ft
- IATA code : SJJ


LQSA - Sarajevo

CURRENT METAR :
  • 301500Z 33006KT 300V030 9999 FEW040TCU SCT050 34/13 Q1012 TEMPO VRB12KT TS FEW035CB SCT045

EXPIRED METARs :
  • 301430Z 35007KT 310V030 9999 FEW035CB SCT050 33/13 Q1012 TEMPO VRB12KT TS
  • 301400Z 33006KT 290V040 9999 FEW035CB SCT050 34/13 Q1012 TEMPO VRB12KT TS
  • 301330Z 32007KT 280V040 9999 FEW040TCU SCT050 34/14 Q1013 NOSIG
  • 301300Z VRB04KT 9999 FEW040TCU SCT050 33/13 Q1013 NOSIG
  • 301230Z VRB04KT 9999 SCT045 34/14 Q1013 NOSIG

TAF TAF LQSA
Valid from the 30 at 12:00 until the 01 at 12:00 UTC


301100Z 3012/0112 31007KT 9999 FEW040TCU SCT050 TX34/3013Z TN18/0103Z
PROB40
TEMPO 3014/3020 11015KT TSRA SCT035CB SCT050
BECMG 3020/3022 NSC



MET'MAP, your aeronautical weather chart ! - Copyright ORBIFLY December 2007 - Disclaimer

ORBIFLY MET'MAP TEAM :

Programming & Development : Alexandra Zaïnal
Original concept : Baudouin d'Aumeries
Technical & hardware support : Manuel Goepfert
Assistance : Marc-Olivier Méhu




SOURCES & CREDITS :

   NOAA